sensor_id;sensor_type;location;lat;lon;timestamp;P1;P2;P0
82291;PMS5003;71891;21.336;-157.724;2023-08-30T00:01:34;5;4;
82291;PMS5003;71891;21.336;-157.724;2023-08-30T00:04:00;3;3;
82291;PMS5003;71891;21.336;-157.724;2023-08-30T00:06:25;5;4;
82291;PMS5003;71891;21.336;-157.724;2023-08-30T00:08:51;3;3;
82291;PMS5003;71891;21.336;-157.724;2023-08-30T00:11:16;3;3;
82291;PMS5003;71891;21.336;-157.724;2023-08-30T00:13:42;4;4;
82291;PMS5003;71891;21.336;-157.724;2023-08-30T00:16:07;5;4;
82291;PMS5003;71891;21.336;-157.724;2023-08-30T00:18:33;3;2;
82291;PMS5003;71891;21.336;-157.724;2023-08-30T00:20:58;3;3;
82291;PMS5003;71891;21.336;-157.724;2023-08-30T00:23:24;3;2;
82291;PMS5003;71891;21.336;-157.724;2023-08-30T00:25:50;6;4;
82291;PMS5003;71891;21.336;-157.724;2023-08-30T00:28:15;3;3;
82291;PMS5003;71891;21.336;-157.724;2023-08-30T00:30:41;3;3;
82291;PMS5003;71891;21.336;-157.724;2023-08-30T00:33:06;5;4;
82291;PMS5003;71891;21.336;-157.724;2023-08-30T00:35:32;8;4;
82291;PMS5003;71891;21.336;-157.724;2023-08-30T00:37:57;6;6;
82291;PMS5003;71891;21.336;-157.724;2023-08-30T00:40:23;9;7;
82291;PMS5003;71891;21.336;-157.724;2023-08-30T00:42:48;5;4;
82291;PMS5003;71891;21.336;-157.724;2023-08-30T00:45:14;3;3;
82291;PMS5003;71891;21.336;-157.724;2023-08-30T00:47:40;9;5;
82291;PMS5003;71891;21.336;-157.724;2023-08-30T00:50:05;4;4;
82291;PMS5003;71891;21.336;-157.724;2023-08-30T00:52:31;4;4;
82291;PMS5003;71891;21.336;-157.724;2023-08-30T00:54:56;4;4;
82291;PMS5003;71891;21.336;-157.724;2023-08-30T00:57:22;6;6;
82291;PMS5003;71891;21.336;-157.724;2023-08-30T00:59:47;7;7;
82291;PMS5003;71891;21.336;-157.724;2023-08-30T01:02:13;6;5;
82291;PMS5003;71891;21.336;-157.724;2023-08-30T01:04:38;5;4;
82291;PMS5003;71891;21.336;-157.724;2023-08-30T01:07:04;4;3;
82291;PMS5003;71891;21.336;-157.724;2023-08-30T01:09:29;5;4;
82291;PMS5003;71891;21.336;-157.724;2023-08-30T01:11:57;5;4;
82291;PMS5003;71891;21.336;-157.724;2023-08-30T01:14:21;2;2;
82291;PMS5003;71891;21.336;-157.724;2023-08-30T01:16:47;3;3;
82291;PMS5003;71891;21.336;-157.724;2023-08-30T01:19:16;4;4;
82291;PMS5003;71891;21.336;-157.724;2023-08-30T01:21:38;3;3;
82291;PMS5003;71891;21.336;-157.724;2023-08-30T01:24:03;4;4;
82291;PMS5003;71891;21.336;-157.724;2023-08-30T01:26:29;5;5;
82291;PMS5003;71891;21.336;-157.724;2023-08-30T01:28:54;4;4;
82291;PMS5003;71891;21.336;-157.724;2023-08-30T01:31:19;6;4;
82291;PMS5003;71891;21.336;-157.724;2023-08-30T01:33:45;5;5;
82291;PMS5003;71891;21.336;-157.724;2023-08-30T01:36:11;7;6;
82291;PMS5003;71891;21.336;-157.724;2023-08-30T01:38:36;4;4;
82291;PMS5003;71891;21.336;-157.724;2023-08-30T01:41:01;4;4;
82291;PMS5003;71891;21.336;-157.724;2023-08-30T01:43:27;5;4;
82291;PMS5003;71891;21.336;-157.724;2023-08-30T01:45:53;5;5;
82291;PMS5003;71891;21.336;-157.724;2023-08-30T01:48:18;5;5;
82291;PMS5003;71891;21.336;-157.724;2023-08-30T01:50:44;6;6;
82291;PMS5003;71891;21.336;-157.724;2023-08-30T01:53:10;5;5;
82291;PMS5003;71891;21.336;-157.724;2023-08-30T01:55:35;3;3;
82291;PMS5003;71891;21.336;-157.724;2023-08-30T01:58:01;6;6;
82291;PMS5003;71891;21.336;-157.724;2023-08-30T02:00:26;6;6;
82291;PMS5003;71891;21.336;-157.724;2023-08-30T02:02:51;7;7;
82291;PMS5003;71891;21.336;-157.724;2023-08-30T02:05:17;5;4;
82291;PMS5003;71891;21.336;-157.724;2023-08-30T02:07:50;3;3;
82291;PMS5003;71891;21.336;-157.724;2023-08-30T02:10:09;7;5;
82291;PMS5003;71891;21.336;-157.724;2023-08-30T02:12:35;7;6;
82291;PMS5003;71891;21.336;-157.724;2023-08-30T02:14:59;6;5;
82291;PMS5003;71891;21.336;-157.724;2023-08-30T02:17:25;5;5;
82291;PMS5003;71891;21.336;-157.724;2023-08-30T02:19:51;9;6;
82291;PMS5003;71891;21.336;-157.724;2023-08-30T02:22:16;6;6;
82291;PMS5003;71891;21.336;-157.724;2023-08-30T02:24:41;8;7;
82291;PMS5003;71891;21.336;-157.724;2023-08-30T02:27:07;6;6;
82291;PMS5003;71891;21.336;-157.724;2023-08-30T02:29:32;7;6;
82291;PMS5003;71891;21.336;-157.724;2023-08-30T02:31:58;5;5;
82291;PMS5003;71891;21.336;-157.724;2023-08-30T02:34:23;6;6;
82291;PMS5003;71891;21.336;-157.724;2023-08-30T02:36:49;5;5;
82291;PMS5003;71891;21.336;-157.724;2023-08-30T02:39:15;5;5;
82291;PMS5003;71891;21.336;-157.724;2023-08-30T02:41:40;7;7;
82291;PMS5003;71891;21.336;-157.724;2023-08-30T02:44:07;6;5;
82291;PMS5003;71891;21.336;-157.724;2023-08-30T02:46:31;7;7;
82291;PMS5003;71891;21.336;-157.724;2023-08-30T02:48:57;8;7;
82291;PMS5003;71891;21.336;-157.724;2023-08-30T02:51:22;6;6;
82291;PMS5003;71891;21.336;-157.724;2023-08-30T02:53:48;8;7;
82291;PMS5003;71891;21.336;-157.724;2023-08-30T02:56:13;10;6;
82291;PMS5003;71891;21.336;-157.724;2023-08-30T02:58:38;9;8;
82291;PMS5003;71891;21.336;-157.724;2023-08-30T03:01:04;8;8;
82291;PMS5003;71891;21.336;-157.724;2023-08-30T03:03:30;9;7;
82291;PMS5003;71891;21.336;-157.724;2023-08-30T03:05:55;5;5;
82291;PMS5003;71891;21.336;-157.724;2023-08-30T03:08:21;8;7;
82291;PMS5003;71891;21.336;-157.724;2023-08-30T03:10:47;8;7;
82291;PMS5003;71891;21.336;-157.724;2023-08-30T03:13:12;9;7;
82291;PMS5003;71891;21.336;-157.724;2023-08-30T03:15:37;8;8;
82291;PMS5003;71891;21.336;-157.724;2023-08-30T03:18:03;8;8;
82291;PMS5003;71891;21.336;-157.724;2023-08-30T03:20:28;7;7;
82291;PMS5003;71891;21.336;-157.724;2023-08-30T03:22:56;9;8;
82291;PMS5003;71891;21.336;-157.724;2023-08-30T03:25:20;9;8;
82291;PMS5003;71891;21.336;-157.724;2023-08-30T03:27:46;4;4;
82291;PMS5003;71891;21.336;-157.724;2023-08-30T03:30:11;7;7;
82291;PMS5003;71891;21.336;-157.724;2023-08-30T03:32:36;6;5;
82291;PMS5003;71891;21.336;-157.724;2023-08-30T03:35:02;6;5;
82291;PMS5003;71891;21.336;-157.724;2023-08-30T03:37:27;5;4;
82291;PMS5003;71891;21.336;-157.724;2023-08-30T03:39:53;6;6;
82291;PMS5003;71891;21.336;-157.724;2023-08-30T03:42:19;6;6;
82291;PMS5003;71891;21.336;-157.724;2023-08-30T03:44:44;6;5;
82291;PMS5003;71891;21.336;-157.724;2023-08-30T03:47:09;6;5;
82291;PMS5003;71891;21.336;-157.724;2023-08-30T03:49:35;5;5;
82291;PMS5003;71891;21.336;-157.724;2023-08-30T03:52:01;7;5;
82291;PMS5003;71891;21.336;-157.724;2023-08-30T03:54:26;6;6;
82291;PMS5003;71891;21.336;-157.724;2023-08-30T03:56:52;6;5;
82291;PMS5003;71891;21.336;-157.724;2023-08-30T03:59:17;6;5;
82291;PMS5003;71891;21.336;-157.724;2023-08-30T04:01:44;5;4;
82291;PMS5003;71891;21.336;-157.724;2023-08-30T04:04:09;5;5;
82291;PMS5003;71891;21.336;-157.724;2023-08-30T04:06:34;7;7;
82291;PMS5003;71891;21.336;-157.724;2023-08-30T04:09:00;8;8;
82291;PMS5003;71891;21.336;-157.724;2023-08-30T04:11:25;6;5;
82291;PMS5003;71891;21.336;-157.724;2023-08-30T04:13:51;6;6;
82291;PMS5003;71891;21.336;-157.724;2023-08-30T04:16:16;7;6;
82291;PMS5003;71891;21.336;-157.724;2023-08-30T04:18:42;7;6;
82291;PMS5003;71891;21.336;-157.724;2023-08-30T04:21:07;5;5;
82291;PMS5003;71891;21.336;-157.724;2023-08-30T04:23:33;7;5;
82291;PMS5003;71891;21.336;-157.724;2023-08-30T04:25:58;10;7;
82291;PMS5003;71891;21.336;-157.724;2023-08-30T04:28:25;7;6;
82291;PMS5003;71891;21.336;-157.724;2023-08-30T04:30:49;7;5;
82291;PMS5003;71891;21.336;-157.724;2023-08-30T04:33:15;5;4;
82291;PMS5003;71891;21.336;-157.724;2023-08-30T04:35:40;6;6;
82291;PMS5003;71891;21.336;-157.724;2023-08-30T04:38:06;6;6;
82291;PMS5003;71891;21.336;-157.724;2023-08-30T04:40:32;6;5;
82291;PMS5003;71891;21.336;-157.724;2023-08-30T04:42:58;5;5;
82291;PMS5003;71891;21.336;-157.724;2023-08-30T04:45:23;5;5;
82291;PMS5003;71891;21.336;-157.724;2023-08-30T04:47:48;6;6;
82291;PMS5003;71891;21.336;-157.724;2023-08-30T04:50:14;5;5;
82291;PMS5003;71891;21.336;-157.724;2023-08-30T04:52:39;6;6;
82291;PMS5003;71891;21.336;-157.724;2023-08-30T04:55:05;7;7;
82291;PMS5003;71891;21.336;-157.724;2023-08-30T04:57:30;8;6;
82291;PMS5003;71891;21.336;-157.724;2023-08-30T04:59:56;6;6;
82291;PMS5003;71891;21.336;-157.724;2023-08-30T05:02:22;7;6;
82291;PMS5003;71891;21.336;-157.724;2023-08-30T05:04:47;5;5;
82291;PMS5003;71891;21.336;-157.724;2023-08-30T05:07:13;6;6;
82291;PMS5003;71891;21.336;-157.724;2023-08-30T05:09:38;7;7;
82291;PMS5003;71891;21.336;-157.724;2023-08-30T05:12:04;10;8;
82291;PMS5003;71891;21.336;-157.724;2023-08-30T05:14:30;5;5;
82291;PMS5003;71891;21.336;-157.724;2023-08-30T05:16:55;9;8;
82291;PMS5003;71891;21.336;-157.724;2023-08-30T05:19:21;8;7;
82291;PMS5003;71891;21.336;-157.724;2023-08-30T05:21:47;6;5;
82291;PMS5003;71891;21.336;-157.724;2023-08-30T05:24:12;7;7;
82291;PMS5003;71891;21.336;-157.724;2023-08-30T05:26:37;7;6;
82291;PMS5003;71891;21.336;-157.724;2023-08-30T05:29:03;7;6;
82291;PMS5003;71891;21.336;-157.724;2023-08-30T05:31:28;8;6;
82291;PMS5003;71891;21.336;-157.724;2023-08-30T05:33:54;6;6;
82291;PMS5003;71891;21.336;-157.724;2023-08-30T05:36:20;6;6;
82291;PMS5003;71891;21.336;-157.724;2023-08-30T05:38:46;9;8;
82291;PMS5003;71891;21.336;-157.724;2023-08-30T05:41:11;8;7;
82291;PMS5003;71891;21.336;-157.724;2023-08-30T05:43:36;9;7;
82291;PMS5003;71891;21.336;-157.724;2023-08-30T05:46:02;6;5;
82291;PMS5003;71891;21.336;-157.724;2023-08-30T05:48:28;7;7;
82291;PMS5003;71891;21.336;-157.724;2023-08-30T05:50:53;5;5;
82291;PMS5003;71891;21.336;-157.724;2023-08-30T05:53:19;5;5;
82291;PMS5003;71891;21.336;-157.724;2023-08-30T05:55:45;5;5;
82291;PMS5003;71891;21.336;-157.724;2023-08-30T05:58:10;5;3;
82291;PMS5003;71891;21.336;-157.724;2023-08-30T06:00:36;5;5;
82291;PMS5003;71891;21.336;-157.724;2023-08-30T06:03:01;7;3;
82291;PMS5003;71891;21.336;-157.724;2023-08-30T06:05:27;4;3;
82291;PMS5003;71891;21.336;-157.724;2023-08-30T06:07:52;3;3;
82291;PMS5003;71891;21.336;-157.724;2023-08-30T06:10:18;6;5;
82291;PMS5003;71891;21.336;-157.724;2023-08-30T06:12:44;7;5;
82291;PMS5003;71891;21.336;-157.724;2023-08-30T06:15:09;5;5;
82291;PMS5003;71891;21.336;-157.724;2023-08-30T06:17:35;6;6;
82291;PMS5003;71891;21.336;-157.724;2023-08-30T06:20:00;5;5;
82291;PMS5003;71891;21.336;-157.724;2023-08-30T06:22:26;6;6;
82291;PMS5003;71891;21.336;-157.724;2023-08-30T06:24:52;6;6;
82291;PMS5003;71891;21.336;-157.724;2023-08-30T06:27:17;8;7;
82291;PMS5003;71891;21.336;-157.724;2023-08-30T06:29:43;7;6;
82291;PMS5003;71891;21.336;-157.724;2023-08-30T06:32:09;7;6;
82291;PMS5003;71891;21.336;-157.724;2023-08-30T06:34:34;7;6;
82291;PMS5003;71891;21.336;-157.724;2023-08-30T06:37:00;5;5;
82291;PMS5003;71891;21.336;-157.724;2023-08-30T06:39:25;7;6;
82291;PMS5003;71891;21.336;-157.724;2023-08-30T06:41:51;5;5;
82291;PMS5003;71891;21.336;-157.724;2023-08-30T06:44:16;7;5;
82291;PMS5003;71891;21.336;-157.724;2023-08-30T06:46:42;8;6;
82291;PMS5003;71891;21.336;-157.724;2023-08-30T06:49:08;8;7;
82291;PMS5003;71891;21.336;-157.724;2023-08-30T06:51:33;5;5;
82291;PMS5003;71891;21.336;-157.724;2023-08-30T06:53:59;7;7;
82291;PMS5003;71891;21.336;-157.724;2023-08-30T06:56:24;8;7;
82291;PMS5003;71891;21.336;-157.724;2023-08-30T06:58:50;5;5;
82291;PMS5003;71891;21.336;-157.724;2023-08-30T07:01:16;7;6;
82291;PMS5003;71891;21.336;-157.724;2023-08-30T07:03:41;5;5;
82291;PMS5003;71891;21.336;-157.724;2023-08-30T07:06:07;6;6;
82291;PMS5003;71891;21.336;-157.724;2023-08-30T07:08:32;8;7;
82291;PMS5003;71891;21.336;-157.724;2023-08-30T07:10:58;8;7;
82291;PMS5003;71891;21.336;-157.724;2023-08-30T07:13:24;7;6;
82291;PMS5003;71891;21.336;-157.724;2023-08-30T07:15:49;8;8;
82291;PMS5003;71891;21.336;-157.724;2023-08-30T07:18:15;9;7;
82291;PMS5003;71891;21.336;-157.724;2023-08-30T07:20:40;6;4;
82291;PMS5003;71891;21.336;-157.724;2023-08-30T07:23:06;7;5;
82291;PMS5003;71891;21.336;-157.724;2023-08-30T07:25:31;7;6;
82291;PMS5003;71891;21.336;-157.724;2023-08-30T07:27:57;7;7;
82291;PMS5003;71891;21.336;-157.724;2023-08-30T07:30:24;6;6;
82291;PMS5003;71891;21.336;-157.724;2023-08-30T07:32:48;7;6;
82291;PMS5003;71891;21.336;-157.724;2023-08-30T07:35:14;7;7;
82291;PMS5003;71891;21.336;-157.724;2023-08-30T07:37:40;9;7;
82291;PMS5003;71891;21.336;-157.724;2023-08-30T07:40:06;6;5;
82291;PMS5003;71891;21.336;-157.724;2023-08-30T07:42:31;8;8;
82291;PMS5003;71891;21.336;-157.724;2023-08-30T07:44:56;4;4;
82291;PMS5003;71891;21.336;-157.724;2023-08-30T07:47:22;7;6;
82291;PMS5003;71891;21.336;-157.724;2023-08-30T07:49:48;6;5;
82291;PMS5003;71891;21.336;-157.724;2023-08-30T07:52:13;8;7;
82291;PMS5003;71891;21.336;-157.724;2023-08-30T07:54:39;7;4;
82291;PMS5003;71891;21.336;-157.724;2023-08-30T07:57:05;9;7;
82291;PMS5003;71891;21.336;-157.724;2023-08-30T07:59:32;8;8;
82291;PMS5003;71891;21.336;-157.724;2023-08-30T08:01:55;7;7;
82291;PMS5003;71891;21.336;-157.724;2023-08-30T08:04:21;6;6;
82291;PMS5003;71891;21.336;-157.724;2023-08-30T08:06:47;7;7;
82291;PMS5003;71891;21.336;-157.724;2023-08-30T08:09:12;7;6;
82291;PMS5003;71891;21.336;-157.724;2023-08-30T08:11:38;8;7;
82291;PMS5003;71891;21.336;-157.724;2023-08-30T08:14:03;5;5;
82291;PMS5003;71891;21.336;-157.724;2023-08-30T08:16:29;7;6;
82291;PMS5003;71891;21.336;-157.724;2023-08-30T08:18:55;9;8;
82291;PMS5003;71891;21.336;-157.724;2023-08-30T08:21:20;7;7;
82291;PMS5003;71891;21.336;-157.724;2023-08-30T08:23:46;9;8;
82291;PMS5003;71891;21.336;-157.724;2023-08-30T08:26:12;6;6;
82291;PMS5003;71891;21.336;-157.724;2023-08-30T08:28:37;10;8;
82291;PMS5003;71891;21.336;-157.724;2023-08-30T08:31:03;8;8;
82291;PMS5003;71891;21.336;-157.724;2023-08-30T08:33:28;9;8;
82291;PMS5003;71891;21.336;-157.724;2023-08-30T08:35:54;6;5;
82291;PMS5003;71891;21.336;-157.724;2023-08-30T08:38:20;5;5;
82291;PMS5003;71891;21.336;-157.724;2023-08-30T08:40:45;6;6;
82291;PMS5003;71891;21.336;-157.724;2023-08-30T08:43:11;8;7;
82291;PMS5003;71891;21.336;-157.724;2023-08-30T08:45:36;8;7;
82291;PMS5003;71891;21.336;-157.724;2023-08-30T08:48:02;10;9;
82291;PMS5003;71891;21.336;-157.724;2023-08-30T08:50:28;7;6;
82291;PMS5003;71891;21.336;-157.724;2023-08-30T08:52:53;9;9;
82291;PMS5003;71891;21.336;-157.724;2023-08-30T08:55:19;8;8;
82291;PMS5003;71891;21.336;-157.724;2023-08-30T08:57:45;8;6;
82291;PMS5003;71891;21.336;-157.724;2023-08-30T09:00:11;9;8;
82291;PMS5003;71891;21.336;-157.724;2023-08-30T09:02:36;11;11;
82291;PMS5003;71891;21.336;-157.724;2023-08-30T09:05:01;9;8;
82291;PMS5003;71891;21.336;-157.724;2023-08-30T09:07:27;7;6;
82291;PMS5003;71891;21.336;-157.724;2023-08-30T09:09:52;7;7;
82291;PMS5003;71891;21.336;-157.724;2023-08-30T09:12:18;8;7;
82291;PMS5003;71891;21.336;-157.724;2023-08-30T09:17:09;8;8;
82291;PMS5003;71891;21.336;-157.724;2023-08-30T09:19:35;7;7;
82291;PMS5003;71891;21.336;-157.724;2023-08-30T09:22:00;10;10;
82291;PMS5003;71891;21.336;-157.724;2023-08-30T09:26:52;11;8;
82291;PMS5003;71891;21.336;-157.724;2023-08-30T09:29:18;11;8;
82291;PMS5003;71891;21.336;-157.724;2023-08-30T09:31:43;8;8;
82291;PMS5003;71891;21.336;-157.724;2023-08-30T09:34:09;9;8;
82291;PMS5003;71891;21.336;-157.724;2023-08-30T09:36:34;7;7;
82291;PMS5003;71891;21.336;-157.724;2023-08-30T09:39:00;7;7;
82291;PMS5003;71891;21.336;-157.724;2023-08-30T09:41:25;7;6;
82291;PMS5003;71891;21.336;-157.724;2023-08-30T09:43:51;6;6;
82291;PMS5003;71891;21.336;-157.724;2023-08-30T09:46:17;8;7;
82291;PMS5003;71891;21.336;-157.724;2023-08-30T09:48:42;11;9;
82291;PMS5003;71891;21.336;-157.724;2023-08-30T09:51:08;9;8;
82291;PMS5003;71891;21.336;-157.724;2023-08-30T09:53:34;8;6;
82291;PMS5003;71891;21.336;-157.724;2023-08-30T09:55:59;8;7;
82291;PMS5003;71891;21.336;-157.724;2023-08-30T09:58:25;8;8;
82291;PMS5003;71891;21.336;-157.724;2023-08-30T10:00:50;8;6;
82291;PMS5003;71891;21.336;-157.724;2023-08-30T10:03:16;8;7;
82291;PMS5003;71891;21.336;-157.724;2023-08-30T10:05:41;7;6;
82291;PMS5003;71891;21.336;-157.724;2023-08-30T10:08:07;8;6;
82291;PMS5003;71891;21.336;-157.724;2023-08-30T10:10:33;7;6;
82291;PMS5003;71891;21.336;-157.724;2023-08-30T10:12:58;9;9;
82291;PMS5003;71891;21.336;-157.724;2023-08-30T10:15:24;7;7;
82291;PMS5003;71891;21.336;-157.724;2023-08-30T10:17:49;5;5;
82291;PMS5003;71891;21.336;-157.724;2023-08-30T10:20:15;9;7;
82291;PMS5003;71891;21.336;-157.724;2023-08-30T10:22:40;6;6;
82291;PMS5003;71891;21.336;-157.724;2023-08-30T10:25:06;7;6;
82291;PMS5003;71891;21.336;-157.724;2023-08-30T10:27:33;7;7;
82291;PMS5003;71891;21.336;-157.724;2023-08-30T10:29:57;5;5;
82291;PMS5003;71891;21.336;-157.724;2023-08-30T10:32:23;12;8;
82291;PMS5003;71891;21.336;-157.724;2023-08-30T10:34:49;8;6;
82291;PMS5003;71891;21.336;-157.724;2023-08-30T10:37:14;7;6;
82291;PMS5003;71891;21.336;-157.724;2023-08-30T10:39:40;8;8;
82291;PMS5003;71891;21.336;-157.724;2023-08-30T10:42:09;8;8;
82291;PMS5003;71891;21.336;-157.724;2023-08-30T10:44:31;7;7;
82291;PMS5003;71891;21.336;-157.724;2023-08-30T10:46:56;8;8;
82291;PMS5003;71891;21.336;-157.724;2023-08-30T10:49:22;6;6;
82291;PMS5003;71891;21.336;-157.724;2023-08-30T10:54:13;10;9;
82291;PMS5003;71891;21.336;-157.724;2023-08-30T10:56:48;6;6;
82291;PMS5003;71891;21.336;-157.724;2023-08-30T10:59:04;11;8;
82291;PMS5003;71891;21.336;-157.724;2023-08-30T11:01:30;8;8;
82291;PMS5003;71891;21.336;-157.724;2023-08-30T11:03:55;7;6;
82291;PMS5003;71891;21.336;-157.724;2023-08-30T11:06:21;9;8;
82291;PMS5003;71891;21.336;-157.724;2023-08-30T11:08:47;9;8;
82291;PMS5003;71891;21.336;-157.724;2023-08-30T11:11:12;10;9;
82291;PMS5003;71891;21.336;-157.724;2023-08-30T11:13:38;9;8;
82291;PMS5003;71891;21.336;-157.724;2023-08-30T11:16:04;7;7;
82291;PMS5003;71891;21.336;-157.724;2023-08-30T11:18:29;7;7;
82291;PMS5003;71891;21.336;-157.724;2023-08-30T11:20:58;8;8;
82291;PMS5003;71891;21.336;-157.724;2023-08-30T11:23:20;7;6;
82291;PMS5003;71891;21.336;-157.724;2023-08-30T11:25:49;9;9;
82291;PMS5003;71891;21.336;-157.724;2023-08-30T11:28:12;8;8;
82291;PMS5003;71891;21.336;-157.724;2023-08-30T11:30:40;8;7;
82291;PMS5003;71891;21.336;-157.724;2023-08-30T11:33:03;12;10;
82291;PMS5003;71891;21.336;-157.724;2023-08-30T11:35:29;9;8;
82291;PMS5003;71891;21.336;-157.724;2023-08-30T11:37:54;10;9;
82291;PMS5003;71891;21.336;-157.724;2023-08-30T11:40:20;9;8;
82291;PMS5003;71891;21.336;-157.724;2023-08-30T11:42:46;8;8;
82291;PMS5003;71891;21.336;-157.724;2023-08-30T11:45:11;11;10;
82291;PMS5003;71891;21.336;-157.724;2023-08-30T11:47:36;10;7;
82291;PMS5003;71891;21.336;-157.724;2023-08-30T11:50:02;9;9;
82291;PMS5003;71891;21.336;-157.724;2023-08-30T11:52:27;10;9;
82291;PMS5003;71891;21.336;-157.724;2023-08-30T11:54:52;9;8;
82291;PMS5003;71891;21.336;-157.724;2023-08-30T11:57:18;9;8;
82291;PMS5003;71891;21.336;-157.724;2023-08-30T11:59:44;7;6;
82291;PMS5003;71891;21.336;-157.724;2023-08-30T12:02:11;12;10;
82291;PMS5003;71891;21.336;-157.724;2023-08-30T12:04:40;10;10;
82291;PMS5003;71891;21.336;-157.724;2023-08-30T12:07:00;10;10;
82291;PMS5003;71891;21.336;-157.724;2023-08-30T12:09:30;11;11;
82291;PMS5003;71891;21.336;-157.724;2023-08-30T12:11:52;8;8;
82291;PMS5003;71891;21.336;-157.724;2023-08-30T12:14:17;10;9;
82291;PMS5003;71891;21.336;-157.724;2023-08-30T12:16:43;10;10;
82291;PMS5003;71891;21.336;-157.724;2023-08-30T12:19:09;14;11;
82291;PMS5003;71891;21.336;-157.724;2023-08-30T12:24:00;10;9;
82291;PMS5003;71891;21.336;-157.724;2023-08-30T12:28:51;9;9;
82291;PMS5003;71891;21.336;-157.724;2023-08-30T12:31:16;12;12;
82291;PMS5003;71891;21.336;-157.724;2023-08-30T12:33:42;12;10;
82291;PMS5003;71891;21.336;-157.724;2023-08-30T12:36:08;11;10;
82291;PMS5003;71891;21.336;-157.724;2023-08-30T12:38:33;11;11;
82291;PMS5003;71891;21.336;-157.724;2023-08-30T12:41:00;11;11;
82291;PMS5003;71891;21.336;-157.724;2023-08-30T12:43:24;11;10;
82291;PMS5003;71891;21.336;-157.724;2023-08-30T12:45:50;10;9;
82291;PMS5003;71891;21.336;-157.724;2023-08-30T12:48:16;11;9;
82291;PMS5003;71891;21.336;-157.724;2023-08-30T12:50:42;11;10;
82291;PMS5003;71891;21.336;-157.724;2023-08-30T12:53:07;11;10;
82291;PMS5003;71891;21.336;-157.724;2023-08-30T12:55:32;13;12;
82291;PMS5003;71891;21.336;-157.724;2023-08-30T12:57:58;12;11;
82291;PMS5003;71891;21.336;-157.724;2023-08-30T13:00:24;11;10;
82291;PMS5003;71891;21.336;-157.724;2023-08-30T13:02:49;10;10;
82291;PMS5003;71891;21.336;-157.724;2023-08-30T13:05:15;12;12;
82291;PMS5003;71891;21.336;-157.724;2023-08-30T13:07:40;10;9;
82291;PMS5003;71891;21.336;-157.724;2023-08-30T13:10:06;12;11;
82291;PMS5003;71891;21.336;-157.724;2023-08-30T13:12:31;13;13;
82291;PMS5003;71891;21.336;-157.724;2023-08-30T13:14:57;14;13;
82291;PMS5003;71891;21.336;-157.724;2023-08-30T13:17:23;12;11;
82291;PMS5003;71891;21.336;-157.724;2023-08-30T13:19:48;10;10;
82291;PMS5003;71891;21.336;-157.724;2023-08-30T13:22:13;12;11;
82291;PMS5003;71891;21.336;-157.724;2023-08-30T13:24:39;13;11;
82291;PMS5003;71891;21.336;-157.724;2023-08-30T13:27:04;12;12;
82291;PMS5003;71891;21.336;-157.724;2023-08-30T13:29:31;8;8;
82291;PMS5003;71891;21.336;-157.724;2023-08-30T13:31:55;12;11;
82291;PMS5003;71891;21.336;-157.724;2023-08-30T13:34:21;13;12;
82291;PMS5003;71891;21.336;-157.724;2023-08-30T13:36:47;12;11;
82291;PMS5003;71891;21.336;-157.724;2023-08-30T13:39:12;13;12;
82291;PMS5003;71891;21.336;-157.724;2023-08-30T13:41:38;11;11;
82291;PMS5003;71891;21.336;-157.724;2023-08-30T13:44:03;15;14;
82291;PMS5003;71891;21.336;-157.724;2023-08-30T13:46:29;12;10;
82291;PMS5003;71891;21.336;-157.724;2023-08-30T13:48:54;11;11;
82291;PMS5003;71891;21.336;-157.724;2023-08-30T13:51:22;15;15;
82291;PMS5003;71891;21.336;-157.724;2023-08-30T13:53:46;14;13;
82291;PMS5003;71891;21.336;-157.724;2023-08-30T13:56:11;15;12;
82291;PMS5003;71891;21.336;-157.724;2023-08-30T13:58:37;11;10;
82291;PMS5003;71891;21.336;-157.724;2023-08-30T14:01:02;14;11;
82291;PMS5003;71891;21.336;-157.724;2023-08-30T14:03:28;13;11;
82291;PMS5003;71891;21.336;-157.724;2023-08-30T14:05:53;13;12;
82291;PMS5003;71891;21.336;-157.724;2023-08-30T14:08:19;14;10;
82291;PMS5003;71891;21.336;-157.724;2023-08-30T14:10:44;14;14;
82291;PMS5003;71891;21.336;-157.724;2023-08-30T14:13:10;14;12;
82291;PMS5003;71891;21.336;-157.724;2023-08-30T14:15:35;14;13;
82291;PMS5003;71891;21.336;-157.724;2023-08-30T14:18:01;13;13;
82291;PMS5003;71891;21.336;-157.724;2023-08-30T14:20:27;13;13;
82291;PMS5003;71891;21.336;-157.724;2023-08-30T14:22:51;14;13;
82291;PMS5003;71891;21.336;-157.724;2023-08-30T14:25:18;11;11;
82291;PMS5003;71891;21.336;-157.724;2023-08-30T14:27:43;11;11;
82291;PMS5003;71891;21.336;-157.724;2023-08-30T14:30:09;11;11;
82291;PMS5003;71891;21.336;-157.724;2023-08-30T14:32:34;12;11;
82291;PMS5003;71891;21.336;-157.724;2023-08-30T14:34:59;10;9;
82291;PMS5003;71891;21.336;-157.724;2023-08-30T14:37:25;10;10;
82291;PMS5003;71891;21.336;-157.724;2023-08-30T14:39:52;10;10;
82291;PMS5003;71891;21.336;-157.724;2023-08-30T14:42:16;11;11;
82291;PMS5003;71891;21.336;-157.724;2023-08-30T14:44:42;13;11;
82291;PMS5003;71891;21.336;-157.724;2023-08-30T14:47:07;12;11;
82291;PMS5003;71891;21.336;-157.724;2023-08-30T14:49:33;12;10;
82291;PMS5003;71891;21.336;-157.724;2023-08-30T14:51:59;12;11;
82291;PMS5003;71891;21.336;-157.724;2023-08-30T14:54:24;12;11;
82291;PMS5003;71891;21.336;-157.724;2023-08-30T14:56:50;16;15;
82291;PMS5003;71891;21.336;-157.724;2023-08-30T14:59:15;13;11;
82291;PMS5003;71891;21.336;-157.724;2023-08-30T15:01:41;9;9;
82291;PMS5003;71891;21.336;-157.724;2023-08-30T15:04:06;12;12;
82291;PMS5003;71891;21.336;-157.724;2023-08-30T15:06:32;13;13;
82291;PMS5003;71891;21.336;-157.724;2023-08-30T15:08:58;11;11;
82291;PMS5003;71891;21.336;-157.724;2023-08-30T15:11:23;11;11;
82291;PMS5003;71891;21.336;-157.724;2023-08-30T15:13:49;9;9;
82291;PMS5003;71891;21.336;-157.724;2023-08-30T15:16:14;15;15;
82291;PMS5003;71891;21.336;-157.724;2023-08-30T15:18:39;15;14;
82291;PMS5003;71891;21.336;-157.724;2023-08-30T15:21:05;11;11;
82291;PMS5003;71891;21.336;-157.724;2023-08-30T15:23:31;10;10;
82291;PMS5003;71891;21.336;-157.724;2023-08-30T15:25:56;11;11;
82291;PMS5003;71891;21.336;-157.724;2023-08-30T15:28:22;12;11;
82291;PMS5003;71891;21.336;-157.724;2023-08-30T15:30:48;11;11;
82291;PMS5003;71891;21.336;-157.724;2023-08-30T15:33:13;10;10;
82291;PMS5003;71891;21.336;-157.724;2023-08-30T15:35:38;14;13;
82291;PMS5003;71891;21.336;-157.724;2023-08-30T15:38:04;16;13;
82291;PMS5003;71891;21.336;-157.724;2023-08-30T15:40:29;11;11;
82291;PMS5003;71891;21.336;-157.724;2023-08-30T15:42:55;15;14;
82291;PMS5003;71891;21.336;-157.724;2023-08-30T15:45:20;13;11;
82291;PMS5003;71891;21.336;-157.724;2023-08-30T15:47:46;12;11;
82291;PMS5003;71891;21.336;-157.724;2023-08-30T15:50:11;11;11;
82291;PMS5003;71891;21.336;-157.724;2023-08-30T15:52:37;11;10;
82291;PMS5003;71891;21.336;-157.724;2023-08-30T15:55:03;15;13;